createdAt,value
2023-05-09T00:00:03.141Z,87.00
2023-05-09T00:01:03.079Z,86.00
2023-05-09T00:02:02.712Z,86.00
2023-05-09T00:03:03.140Z,86.00
2023-05-09T00:04:03.227Z,85.00
2023-05-09T00:05:02.838Z,85.00
2023-05-09T00:06:03.455Z,85.00
2023-05-09T00:07:03.195Z,86.00
2023-05-09T00:08:03.202Z,86.00
2023-05-09T00:09:02.425Z,85.00
2023-05-09T00:10:01.984Z,85.00
2023-05-09T00:11:02.195Z,85.00
2023-05-09T00:12:02.208Z,85.00
2023-05-09T00:13:02.124Z,85.00
2023-05-09T00:14:02.916Z,85.00
2023-05-09T00:15:02.987Z,84.00
2023-05-09T00:16:02.441Z,84.00
2023-05-09T00:17:02.427Z,85.00
2023-05-09T00:18:02.708Z,86.00
2023-05-09T00:19:02.950Z,86.00
2023-05-09T00:20:02.979Z,86.00
2023-05-09T00:21:03.177Z,86.00
2023-05-09T00:22:03.190Z,86.00
2023-05-09T00:23:03.001Z,86.00
2023-05-09T00:24:02.796Z,86.00
2023-05-09T00:25:02.837Z,86.00
2023-05-09T00:26:02.879Z,86.00
2023-05-09T00:27:02.327Z,86.00
2023-05-09T00:28:02.341Z,86.00
2023-05-09T00:29:03.413Z,86.00
2023-05-09T00:30:03.160Z,86.00
2023-05-09T00:31:03.270Z,86.00
2023-05-09T00:32:03.306Z,86.00
2023-05-09T00:33:03.378Z,85.00
2023-05-09T00:34:03.137Z,85.00
2023-05-09T00:35:03.065Z,84.00
2023-05-09T00:36:03.042Z,83.00
2023-05-09T00:37:03.049Z,83.00
2023-05-09T00:38:02.826Z,83.00
2023-05-09T00:39:02.595Z,83.00
2023-05-09T00:40:02.083Z,83.00
2023-05-09T00:41:02.031Z,83.00
2023-05-09T00:42:02.021Z,82.00
2023-05-09T00:43:01.980Z,83.00
2023-05-09T00:44:02.717Z,82.00
2023-05-09T00:45:02.647Z,83.00
2023-05-09T00:46:02.456Z,84.00
2023-05-09T00:47:02.674Z,84.00
2023-05-09T00:48:02.501Z,85.00
2023-05-09T00:49:03.366Z,85.00
2023-05-09T00:50:03.207Z,85.00
2023-05-09T00:51:03.318Z,84.00
2023-05-09T00:52:03.112Z,84.00
2023-05-09T00:53:03.159Z,85.00
2023-05-09T00:54:02.948Z,86.00
2023-05-09T00:55:02.737Z,86.00
2023-05-09T00:56:02.754Z,86.00
2023-05-09T00:57:02.781Z,86.00
2023-05-09T00:58:02.640Z,86.00
2023-05-09T00:59:02.779Z,86.00
2023-05-09T01:00:02.804Z,86.00
2023-05-09T01:01:02.957Z,86.00
2023-05-09T01:02:03.261Z,86.00
2023-05-09T01:03:02.890Z,86.00
2023-05-09T01:04:02.693Z,86.00
2023-05-09T01:05:02.743Z,86.00
2023-05-09T01:06:02.774Z,87.00
2023-05-09T01:07:02.666Z,87.00
2023-05-09T01:08:02.645Z,87.00
2023-05-09T01:09:01.638Z,87.00
2023-05-09T01:10:01.762Z,87.00
2023-05-09T01:11:02.012Z,87.00
2023-05-09T01:12:01.860Z,87.00
2023-05-09T01:13:01.943Z,87.00
2023-05-09T01:14:01.742Z,86.00
2023-05-09T01:15:01.803Z,86.00
2023-05-09T01:16:02.346Z,86.00
2023-05-09T01:17:01.924Z,87.00
2023-05-09T01:18:01.789Z,87.00
2023-05-09T01:19:01.785Z,87.00
2023-05-09T01:20:01.828Z,87.00
2023-05-09T01:21:01.981Z,87.00
2023-05-09T01:22:01.896Z,87.00
2023-05-09T01:23:01.951Z,87.00
2023-05-09T01:24:02.649Z,87.00
2023-05-09T01:25:02.775Z,86.00
2023-05-09T01:26:02.610Z,86.00
2023-05-09T01:27:02.184Z,85.00
2023-05-09T01:28:02.305Z,85.00
2023-05-09T01:29:02.343Z,85.00
2023-05-09T01:30:02.314Z,85.00
2023-05-09T01:31:02.805Z,84.00
2023-05-09T01:32:02.741Z,84.00
2023-05-09T01:33:02.910Z,85.00
2023-05-09T01:34:01.932Z,85.00
2023-05-09T01:35:01.946Z,86.00
2023-05-09T01:36:02.007Z,86.00
2023-05-09T01:37:02.129Z,86.00
2023-05-09T01:38:01.762Z,86.00
2023-05-09T01:39:02.533Z,86.00
2023-05-09T01:40:02.586Z,85.00
2023-05-09T01:41:02.594Z,85.00
2023-05-09T01:42:02.422Z,85.00
2023-05-09T01:43:02.422Z,86.00
2023-05-09T01:44:02.618Z,85.00
2023-05-09T01:45:02.937Z,86.00
2023-05-09T01:46:02.593Z,86.00
2023-05-09T01:47:02.620Z,85.00
2023-05-09T01:48:02.752Z,86.00
2023-05-09T01:49:02.640Z,87.00
2023-05-09T01:50:02.867Z,86.00
2023-05-09T01:51:02.673Z,86.00
2023-05-09T01:52:02.712Z,85.00
2023-05-09T01:53:02.981Z,86.00
2023-05-09T01:54:02.136Z,86.00
2023-05-09T01:55:01.979Z,85.00
2023-05-09T01:56:02.044Z,85.00
2023-05-09T01:57:02.087Z,85.00
2023-05-09T01:58:01.961Z,86.00
2023-05-09T01:59:02.746Z,86.00
2023-05-09T02:00:02.785Z,86.00
2023-05-09T02:01:02.836Z,87.00
2023-05-09T02:02:02.959Z,87.00
2023-05-09T02:03:02.598Z,87.00
2023-05-09T02:04:01.790Z,86.00
2023-05-09T02:05:01.828Z,85.00
2023-05-09T02:06:01.940Z,85.00
2023-05-09T02:07:01.929Z,85.00
2023-05-09T02:08:02.092Z,85.00
2023-05-09T02:09:02.426Z,86.00
2023-05-09T02:10:02.515Z,86.00
2023-05-09T02:11:02.588Z,86.00
2023-05-09T02:12:02.617Z,87.00
2023-05-09T02:13:02.822Z,87.00
2023-05-09T02:14:01.897Z,87.00
2023-05-09T02:15:01.848Z,88.00
2023-05-09T02:16:02.451Z,87.00
2023-05-09T02:17:01.886Z,87.00
2023-05-09T02:18:02.070Z,87.00
2023-05-09T02:19:02.638Z,87.00
2023-05-09T02:20:02.763Z,87.00
2023-05-09T02:21:02.788Z,86.00
2023-05-09T02:22:02.821Z,86.00
2023-05-09T02:23:02.687Z,86.00
2023-05-09T02:24:02.833Z,86.00
2023-05-09T02:25:02.840Z,86.00
2023-05-09T02:26:02.952Z,86.00
2023-05-09T02:27:02.932Z,86.00
2023-05-09T02:28:02.937Z,86.00
2023-05-09T02:29:02.512Z,86.00
2023-05-09T02:30:02.671Z,86.00
2023-05-09T02:31:02.418Z,85.00
2023-05-09T02:32:02.469Z,86.00
2023-05-09T02:33:02.449Z,86.00
2023-05-09T02:34:02.037Z,86.00
2023-05-09T02:35:02.251Z,86.00
2023-05-09T02:36:02.106Z,85.00
2023-05-09T02:37:02.221Z,86.00
2023-05-09T02:38:02.111Z,86.00
2023-05-09T02:39:02.150Z,86.00
2023-05-09T02:40:02.068Z,86.00
2023-05-09T02:41:02.125Z,86.00
2023-05-09T02:42:02.031Z,85.00
2023-05-09T02:43:02.083Z,86.00
2023-05-09T02:44:02.693Z,86.00
2023-05-09T02:45:02.707Z,86.00
2023-05-09T02:46:02.646Z,86.00
2023-05-09T02:47:02.613Z,86.00
2023-05-09T02:48:02.981Z,87.00
2023-05-09T02:49:02.978Z,86.00
2023-05-09T02:50:02.973Z,87.00
2023-05-09T02:51:03.034Z,87.00
2023-05-09T02:52:03.118Z,87.00
2023-05-09T02:53:03.132Z,87.00
2023-05-09T02:54:02.768Z,87.00
2023-05-09T02:55:02.721Z,86.00
2023-05-09T02:56:02.725Z,86.00
2023-05-09T02:57:02.446Z,86.00
2023-05-09T02:58:13.545Z,86.00
2023-05-09T02:59:02.394Z,86.00
2023-05-09T03:00:02.462Z,85.00
2023-05-09T03:01:02.303Z,85.00
2023-05-09T03:02:02.377Z,85.00
2023-05-09T03:03:02.322Z,85.00
2023-05-09T03:04:03.240Z,84.00
2023-05-09T03:05:03.706Z,85.00
2023-05-09T03:06:03.603Z,85.00
2023-05-09T03:07:03.281Z,85.00
2023-05-09T03:08:03.329Z,86.00
2023-05-09T03:09:02.820Z,86.00
2023-05-09T03:10:03.068Z,86.00
2023-05-09T03:11:02.863Z,86.00
2023-05-09T03:12:02.469Z,85.00
2023-05-09T03:13:02.703Z,86.00
2023-05-09T03:14:03.444Z,86.00
2023-05-09T03:15:03.333Z,86.00
2023-05-09T03:16:03.460Z,86.00
2023-05-09T03:17:03.298Z,85.00
2023-05-09T03:18:03.500Z,86.00
2023-05-09T03:19:02.895Z,86.00
2023-05-09T03:20:04.420Z,86.00
2023-05-09T03:21:02.549Z,86.00
2023-05-09T03:22:02.652Z,86.00
2023-05-09T03:23:02.764Z,87.00
2023-05-09T03:24:03.293Z,87.00
2023-05-09T03:25:03.075Z,86.00
2023-05-09T03:26:02.814Z,86.00
2023-05-09T03:27:03.078Z,86.00
2023-05-09T03:28:03.101Z,86.00
2023-05-09T03:29:03.337Z,86.00
2023-05-09T03:30:02.987Z,86.00
2023-05-09T03:31:03.045Z,86.00
2023-05-09T03:32:02.863Z,86.00
2023-05-09T03:33:02.900Z,86.00
2023-05-09T03:34:02.917Z,86.00
2023-05-09T03:35:02.768Z,86.00
2023-05-09T03:36:02.313Z,86.00
2023-05-09T03:37:02.910Z,86.00
2023-05-09T03:38:02.736Z,86.00
2023-05-09T03:39:03.615Z,86.00
2023-05-09T03:40:03.091Z,86.00
2023-05-09T03:41:03.004Z,86.00
2023-05-09T03:42:03.237Z,86.00
2023-05-09T03:43:03.380Z,86.00
2023-05-09T03:44:02.597Z,86.00
2023-05-09T03:45:02.788Z,86.00
2023-05-09T03:46:02.898Z,86.00
2023-05-09T03:47:03.220Z,87.00
2023-05-09T03:48:03.168Z,86.00
2023-05-09T03:49:02.926Z,86.00
2023-05-09T03:50:03.461Z,87.00
2023-05-09T03:51:02.984Z,87.00
2023-05-09T03:52:03.421Z,87.00
2023-05-09T03:53:03.515Z,87.00
2023-05-09T03:54:03.420Z,87.00
2023-05-09T03:55:02.648Z,87.00
2023-05-09T03:56:02.702Z,87.00
2023-05-09T03:57:02.735Z,87.00
2023-05-09T03:58:02.549Z,87.00
2023-05-09T03:59:02.746Z,87.00
2023-05-09T04:00:03.511Z,87.00
2023-05-09T04:01:03.204Z,87.00
2023-05-09T04:02:03.422Z,87.00
2023-05-09T04:03:03.729Z,87.00
2023-05-09T04:04:03.396Z,86.00
2023-05-09T04:05:02.778Z,86.00
2023-05-09T04:06:03.003Z,86.00
2023-05-09T04:07:02.821Z,86.00
2023-05-09T04:08:02.902Z,86.00
2023-05-09T04:09:02.913Z,85.00
2023-05-09T04:10:03.100Z,85.00
2023-05-09T04:11:03.232Z,85.00
2023-05-09T04:12:03.137Z,85.00
2023-05-09T04:13:02.837Z,86.00
2023-05-09T04:14:03.221Z,86.00
2023-05-09T04:15:03.228Z,86.00
2023-05-09T04:16:03.205Z,86.00
2023-05-09T04:17:03.531Z,85.00
2023-05-09T04:18:03.276Z,84.00
2023-05-09T04:19:03.264Z,84.00
2023-05-09T04:20:03.021Z,85.00
2023-05-09T04:21:02.961Z,85.00
2023-05-09T04:22:03.189Z,85.00
2023-05-09T04:23:03.331Z,84.00
2023-05-09T04:24:03.633Z,85.00
2023-05-09T04:25:03.367Z,85.00
2023-05-09T04:26:03.155Z,86.00
2023-05-09T04:27:03.405Z,86.00
2023-05-09T04:28:03.607Z,86.00
2023-05-09T04:29:03.098Z,86.00
2023-05-09T04:30:02.904Z,86.00
2023-05-09T04:31:02.719Z,85.00
2023-05-09T04:32:02.801Z,86.00
2023-05-09T04:33:02.931Z,86.00
2023-05-09T04:34:02.608Z,86.00
2023-05-09T04:35:03.547Z,86.00
2023-05-09T04:36:03.475Z,85.00
2023-05-09T04:37:03.349Z,86.00
2023-05-09T04:38:03.415Z,85.00
2023-05-09T04:39:02.927Z,85.00
2023-05-09T04:40:02.425Z,85.00
2023-05-09T04:41:02.641Z,84.00
2023-05-09T04:42:02.810Z,84.00
2023-05-09T04:43:02.843Z,84.00
2023-05-09T04:44:02.375Z,84.00
2023-05-09T04:45:03.211Z,84.00
2023-05-09T04:46:02.937Z,84.00
2023-05-09T04:47:02.747Z,84.00
2023-05-09T04:48:03.372Z,84.00
2023-05-09T04:49:03.179Z,84.00
2023-05-09T04:50:02.808Z,83.00
2023-05-09T04:51:02.903Z,83.00
2023-05-09T04:52:02.989Z,83.00
2023-05-09T04:53:03.076Z,83.00
2023-05-09T04:54:03.399Z,83.00
2023-05-09T04:55:03.312Z,83.00
2023-05-09T04:56:03.341Z,83.00
2023-05-09T04:57:13.836Z,83.00
2023-05-09T04:58:02.968Z,83.00
2023-05-09T04:59:03.425Z,84.00
2023-05-09T05:00:03.200Z,83.00
2023-05-09T05:01:02.873Z,82.00
2023-05-09T05:02:03.237Z,82.00
2023-05-09T05:03:03.175Z,82.00
2023-05-09T05:04:03.197Z,83.00
2023-05-09T05:05:10.938Z,82.00
2023-05-09T05:06:01.729Z,82.00
2023-05-09T05:07:01.973Z,81.00
2023-05-09T05:08:02.026Z,81.00
2023-05-09T05:09:01.838Z,82.00
2023-05-09T05:10:02.607Z,82.00
2023-05-09T05:11:02.378Z,82.00
2023-05-09T05:12:04.239Z,82.00
2023-05-09T05:13:02.594Z,82.00
2023-05-09T05:14:02.229Z,82.00
2023-05-09T05:15:02.809Z,82.00
2023-05-09T05:16:02.566Z,83.00
2023-05-09T05:17:02.650Z,83.00
2023-05-09T05:18:03.008Z,82.00
2023-05-09T05:19:03.008Z,82.00
2023-05-09T05:20:02.184Z,82.00
2023-05-09T05:21:02.535Z,82.00
2023-05-09T05:22:02.461Z,82.00
2023-05-09T05:23:02.568Z,82.00
2023-05-09T05:24:02.288Z,82.00
2023-05-09T05:25:02.762Z,82.00
2023-05-09T05:26:02.701Z,82.00
2023-05-09T05:27:02.752Z,82.00
2023-05-09T05:28:02.911Z,82.00
2023-05-09T05:29:02.432Z,82.00
2023-05-09T05:30:01.575Z,82.00
2023-05-09T05:31:01.670Z,82.00
2023-05-09T05:32:02.263Z,82.00
2023-05-09T05:33:02.152Z,82.00
2023-05-09T05:34:01.908Z,82.00
2023-05-09T05:35:02.165Z,82.00
2023-05-09T05:36:01.951Z,82.00
2023-05-09T05:37:02.025Z,82.00
2023-05-09T05:38:01.985Z,82.00
2023-05-09T05:39:02.639Z,82.00
2023-05-09T05:40:02.239Z,83.00
2023-05-09T05:41:02.418Z,83.00
2023-05-09T05:42:02.694Z,83.00
2023-05-09T05:43:02.845Z,83.00
2023-05-09T05:44:02.633Z,83.00
2023-05-09T05:45:02.286Z,83.00
2023-05-09T05:46:01.894Z,83.00
2023-05-09T05:47:02.190Z,83.00
2023-05-09T05:48:02.464Z,83.00
2023-05-09T05:49:02.236Z,83.00
2023-05-09T05:50:03.010Z,83.00
2023-05-09T05:51:02.782Z,83.00
2023-05-09T05:52:02.769Z,83.00
2023-05-09T05:53:02.930Z,83.00
2023-05-09T05:54:02.435Z,83.00
2023-05-09T05:55:02.842Z,83.00
2023-05-09T05:56:02.465Z,83.00
2023-05-09T05:57:02.671Z,83.00
2023-05-09T05:58:02.562Z,82.00
2023-05-09T05:59:02.702Z,82.00
2023-05-09T06:00:02.015Z,82.00
2023-05-09T06:01:01.860Z,82.00
2023-05-09T06:02:02.341Z,82.00
2023-05-09T06:03:02.353Z,83.00
2023-05-09T06:04:02.073Z,83.00
2023-05-09T06:05:02.237Z,83.00
2023-05-09T06:06:02.328Z,83.00
2023-05-09T06:07:02.095Z,82.00
2023-05-09T06:08:02.305Z,83.00
2023-05-09T06:09:02.032Z,82.00
2023-05-09T06:10:02.191Z,82.00
2023-05-09T06:11:02.294Z,82.00
2023-05-09T06:12:02.593Z,83.00
2023-05-09T06:13:02.379Z,83.00
2023-05-09T06:14:02.241Z,83.00
2023-05-09T06:15:02.912Z,82.00
2023-05-09T06:16:14.951Z,82.00
2023-05-09T06:17:03.380Z,82.00
2023-05-09T06:18:03.177Z,82.00
2023-05-09T06:19:03.287Z,82.00
2023-05-09T06:20:02.044Z,82.00
2023-05-09T06:21:02.188Z,82.00
2023-05-09T06:22:02.314Z,82.00
2023-05-09T06:23:02.249Z,82.00
2023-05-09T06:24:10.207Z,83.00
2023-05-09T06:25:02.747Z,83.00
2023-05-09T06:26:02.733Z,83.00
2023-05-09T06:27:02.225Z,83.00
2023-05-09T06:28:02.380Z,84.00
2023-05-09T06:29:02.609Z,83.00
2023-05-09T06:30:08.283Z,84.00
2023-05-09T06:31:02.437Z,84.00
2023-05-09T06:32:02.546Z,84.00
2023-05-09T06:33:02.914Z,84.00
2023-05-09T06:34:02.708Z,84.00
2023-05-09T06:35:02.845Z,84.00
2023-05-09T06:36:03.004Z,84.00
2023-05-09T06:37:03.190Z,84.00
2023-05-09T06:38:02.848Z,84.00
2023-05-09T06:39:03.114Z,84.00
2023-05-09T06:40:02.487Z,84.00
2023-05-09T06:41:02.588Z,84.00
2023-05-09T06:42:02.581Z,84.00
2023-05-09T06:43:02.140Z,83.00
2023-05-09T06:44:02.309Z,83.00
2023-05-09T06:45:02.532Z,83.00
2023-05-09T06:46:02.564Z,83.00
2023-05-09T06:47:02.771Z,83.00
2023-05-09T06:48:02.477Z,83.00
2023-05-09T06:49:02.761Z,82.00
2023-05-09T06:50:02.666Z,82.00
2023-05-09T06:51:03.111Z,82.00
2023-05-09T06:52:02.640Z,82.00
2023-05-09T06:53:03.243Z,82.00
2023-05-09T06:54:03.417Z,82.00
2023-05-09T06:55:02.358Z,83.00
2023-05-09T06:56:02.361Z,83.00
2023-05-09T06:57:02.059Z,83.00
2023-05-09T06:58:02.209Z,84.00
2023-05-09T06:59:02.584Z,84.00
2023-05-09T07:00:03.025Z,83.00
2023-05-09T07:01:02.649Z,84.00
2023-05-09T07:02:03.086Z,84.00
2023-05-09T07:03:02.942Z,84.00
2023-05-09T07:04:03.001Z,84.00
2023-05-09T07:05:02.327Z,84.00
2023-05-09T07:06:02.277Z,84.00
2023-05-09T07:07:02.429Z,84.00
2023-05-09T07:08:01.901Z,84.00
2023-05-09T07:09:02.426Z,84.00
2023-05-09T07:11:02.608Z,84.00
2023-05-09T07:12:02.528Z,84.00
2023-05-09T07:13:02.508Z,84.00
2023-05-09T07:14:02.157Z,84.00
2023-05-09T07:15:02.954Z,84.00
2023-05-09T07:16:02.832Z,84.00
2023-05-09T07:17:21.281Z,84.00
2023-05-09T07:18:03.097Z,84.00
2023-05-09T07:19:02.625Z,84.00
2023-05-09T07:20:02.542Z,84.00
2023-05-09T07:21:02.669Z,84.00
2023-05-09T07:22:02.511Z,84.00
2023-05-09T07:23:02.083Z,84.00
2023-05-09T07:24:02.322Z,84.00
2023-05-09T07:25:02.507Z,84.00
2023-05-09T07:26:02.187Z,84.00
2023-05-09T07:27:02.369Z,84.00
2023-05-09T07:28:02.071Z,83.00
2023-05-09T07:29:02.324Z,83.00
2023-05-09T07:30:02.924Z,83.00
2023-05-09T07:31:03.179Z,82.00
2023-05-09T07:32:02.852Z,82.00
2023-05-09T07:33:02.843Z,82.00
2023-05-09T07:34:03.181Z,83.00
2023-05-09T07:35:02.506Z,83.00
2023-05-09T07:36:02.515Z,82.00
2023-05-09T07:37:02.546Z,82.00
2023-05-09T07:38:01.973Z,82.00
2023-05-09T07:39:02.477Z,81.00
2023-05-09T07:40:02.784Z,82.00
2023-05-09T07:41:02.641Z,81.00
2023-05-09T07:42:02.525Z,81.00
2023-05-09T07:43:02.513Z,82.00
2023-05-09T07:44:02.885Z,82.00
2023-05-09T07:45:02.480Z,82.00
2023-05-09T07:46:02.603Z,79.00
2023-05-09T07:47:02.883Z,79.00
2023-05-09T07:48:02.449Z,78.00
2023-05-09T07:49:02.414Z,78.00
2023-05-09T07:50:03.008Z,79.00
2023-05-09T07:51:03.343Z,78.00
2023-05-09T07:52:02.988Z,78.00
2023-05-09T07:53:03.182Z,78.00
2023-05-09T07:54:03.294Z,79.00
2023-05-09T07:55:02.632Z,78.00
2023-05-09T07:56:02.703Z,77.00
2023-05-09T07:57:02.013Z,76.00
2023-05-09T07:58:02.557Z,76.00
2023-05-09T07:59:02.617Z,76.00
2023-05-09T08:00:02.675Z,75.00
2023-05-09T08:01:02.120Z,75.00
2023-05-09T08:02:02.287Z,73.00
2023-05-09T08:03:02.896Z,74.00
2023-05-09T08:04:02.441Z,75.00
2023-05-09T08:05:02.273Z,75.00
2023-05-09T08:06:01.696Z,75.00
2023-05-09T08:07:01.974Z,75.00
2023-05-09T08:08:02.294Z,75.00
2023-05-09T08:09:02.019Z,74.00
2023-05-09T08:10:02.353Z,74.00
2023-05-09T08:11:02.523Z,74.00
2023-05-09T08:12:02.874Z,74.00
2023-05-09T08:13:02.933Z,74.00
2023-05-09T08:14:02.674Z,74.00
2023-05-09T08:15:02.075Z,74.00
2023-05-09T08:16:02.289Z,73.00
2023-05-09T08:17:02.387Z,73.00
2023-05-09T08:18:02.159Z,73.00
2023-05-09T08:19:02.123Z,73.00
2023-05-09T08:20:02.391Z,73.00
2023-05-09T08:21:02.957Z,73.00
2023-05-09T08:22:02.604Z,72.00
2023-05-09T08:23:02.883Z,72.00
2023-05-09T08:24:02.768Z,72.00
2023-05-09T08:25:02.137Z,72.00
2023-05-09T08:26:02.648Z,72.00
2023-05-09T08:27:02.654Z,71.00
2023-05-09T08:28:02.325Z,71.00
2023-05-09T08:29:02.452Z,72.00
2023-05-09T08:30:01.811Z,71.00
2023-05-09T08:31:01.940Z,70.00
2023-05-09T08:32:02.091Z,70.00
2023-05-09T08:33:01.673Z,69.00
2023-05-09T08:34:02.094Z,68.00
2023-05-09T08:35:02.351Z,68.00
2023-05-09T08:36:02.553Z,68.00
2023-05-09T08:37:02.484Z,69.00
2023-05-09T08:38:02.749Z,69.00
2023-05-09T08:39:02.752Z,66.00
2023-05-09T08:40:02.281Z,67.00
2023-05-09T08:41:02.460Z,68.00
2023-05-09T08:42:02.583Z,67.00
2023-05-09T08:43:02.504Z,66.00
2023-05-09T08:44:01.953Z,66.00
2023-05-09T08:45:02.234Z,68.00
2023-05-09T08:46:02.526Z,67.00
2023-05-09T08:47:02.744Z,67.00
2023-05-09T08:48:02.823Z,66.00
2023-05-09T08:49:02.696Z,65.00
2023-05-09T08:50:02.668Z,65.00
2023-05-09T08:51:02.920Z,64.00
2023-05-09T08:52:03.237Z,63.00
2023-05-09T08:53:03.341Z,64.00
2023-05-09T08:54:02.632Z,64.00
2023-05-09T08:55:02.346Z,64.00
2023-05-09T08:56:02.339Z,63.00
2023-05-09T08:57:02.591Z,64.00
2023-05-09T08:58:02.562Z,64.00
2023-05-09T08:59:02.167Z,63.00
2023-05-09T09:00:02.735Z,62.00
2023-05-09T09:01:02.412Z,63.00
2023-05-09T09:02:02.637Z,62.00
2023-05-09T09:03:02.756Z,62.00
2023-05-09T09:04:02.820Z,62.00
2023-05-09T09:05:02.590Z,62.00
2023-05-09T09:06:02.715Z,62.00
2023-05-09T09:07:02.866Z,62.00
2023-05-09T09:08:02.361Z,63.00
2023-05-09T09:09:02.550Z,63.00
2023-05-09T09:10:01.733Z,63.00
2023-05-09T09:11:01.915Z,63.00
2023-05-09T09:12:01.939Z,63.00
2023-05-09T09:13:02.201Z,63.00
2023-05-09T09:14:01.728Z,62.00
2023-05-09T09:15:02.006Z,63.00
2023-05-09T09:16:02.279Z,63.00
2023-05-09T09:17:01.754Z,62.00
2023-05-09T09:18:02.034Z,62.00
2023-05-09T09:19:01.978Z,63.00
2023-05-09T09:20:02.226Z,63.00
2023-05-09T09:21:02.214Z,62.00
2023-05-09T09:22:02.400Z,62.00
2023-05-09T09:23:02.209Z,62.00
2023-05-09T09:24:02.454Z,62.00
2023-05-09T09:25:02.891Z,62.00
2023-05-09T09:26:02.995Z,61.00
2023-05-09T09:27:02.701Z,61.00
2023-05-09T09:28:02.955Z,62.00
2023-05-09T09:29:02.963Z,62.00
2023-05-09T09:30:02.237Z,62.00
2023-05-09T09:31:02.497Z,62.00
2023-05-09T09:32:02.043Z,62.00
2023-05-09T09:33:02.492Z,61.00
2023-05-09T09:34:02.605Z,61.00
2023-05-09T09:35:02.629Z,62.00
2023-05-09T09:36:02.898Z,62.00
2023-05-09T09:37:02.456Z,61.00
2023-05-09T09:38:02.837Z,60.00
2023-05-09T09:39:02.617Z,60.00
2023-05-09T09:40:03.003Z,59.00
2023-05-09T09:41:02.933Z,59.00
2023-05-09T09:42:02.942Z,60.00
2023-05-09T09:43:02.833Z,60.00
2023-05-09T09:44:03.214Z,59.00
2023-05-09T09:45:02.369Z,59.00
2023-05-09T09:46:02.070Z,59.00
2023-05-09T09:47:02.397Z,59.00
2023-05-09T09:48:02.615Z,59.00
2023-05-09T09:49:02.009Z,60.00
2023-05-09T09:50:02.972Z,59.00
2023-05-09T09:51:02.624Z,59.00
2023-05-09T09:52:02.925Z,59.00
2023-05-09T09:53:03.135Z,58.00
2023-05-09T09:54:03.167Z,59.00
2023-05-09T09:55:02.171Z,60.00
2023-05-09T09:56:01.927Z,60.00
2023-05-09T09:57:02.446Z,59.00
2023-05-09T09:58:01.952Z,60.00
2023-05-09T09:59:02.197Z,60.00
2023-05-09T10:00:02.503Z,61.00
2023-05-09T10:01:02.701Z,60.00
2023-05-09T10:02:05.831Z,61.00
2023-05-09T10:03:02.440Z,61.00
2023-05-09T10:04:02.511Z,62.00
2023-05-09T10:05:03.479Z,61.00
2023-05-09T10:06:03.636Z,60.00
2023-05-09T10:07:03.415Z,61.00
2023-05-09T10:08:03.569Z,60.00
2023-05-09T10:09:03.100Z,59.00
2023-05-09T10:10:02.976Z,59.00
2023-05-09T10:11:03.225Z,60.00
2023-05-09T10:12:03.239Z,60.00
2023-05-09T10:13:03.275Z,59.00
2023-05-09T10:14:03.176Z,59.00
2023-05-09T10:15:03.185Z,60.00
2023-05-09T10:16:03.467Z,60.00
2023-05-09T10:17:02.818Z,60.00
2023-05-09T10:18:03.296Z,59.00
2023-05-09T10:19:02.835Z,58.00
2023-05-09T10:20:02.870Z,58.00
2023-05-09T10:21:02.698Z,58.00
2023-05-09T10:22:02.894Z,59.00
2023-05-09T10:23:03.001Z,59.00
2023-05-09T10:24:02.927Z,58.00
2023-05-09T10:25:03.117Z,59.00
2023-05-09T10:26:03.166Z,58.00
2023-05-09T10:27:02.989Z,58.00
2023-05-09T10:28:03.267Z,59.00
2023-05-09T10:29:03.270Z,58.00
2023-05-09T10:30:03.042Z,58.00
2023-05-09T10:31:03.272Z,57.00
2023-05-09T10:32:03.400Z,58.00
2023-05-09T10:33:03.470Z,58.00
2023-05-09T10:34:03.383Z,58.00
2023-05-09T10:35:03.632Z,58.00
2023-05-09T10:36:03.231Z,57.00
2023-05-09T10:37:03.614Z,57.00
2023-05-09T10:38:03.411Z,57.00
2023-05-09T10:39:03.633Z,55.00
2023-05-09T10:40:03.740Z,55.00
2023-05-09T10:41:03.974Z,54.00
2023-05-09T10:42:03.967Z,55.00
2023-05-09T10:43:03.965Z,56.00
2023-05-09T10:44:03.981Z,56.00
2023-05-09T10:45:03.241Z,55.00
2023-05-09T10:46:03.449Z,55.00
2023-05-09T10:47:02.855Z,53.00
2023-05-09T10:48:03.287Z,54.00
2023-05-09T10:49:03.337Z,55.00
2023-05-09T10:50:03.280Z,54.00
2023-05-09T10:51:02.845Z,53.00
2023-05-09T10:52:03.000Z,53.00
2023-05-09T10:53:03.243Z,54.00
2023-05-09T10:54:03.226Z,54.00
2023-05-09T10:55:03.393Z,53.00
2023-05-09T10:56:03.530Z,53.00
2023-05-09T10:57:03.454Z,52.00
2023-05-09T10:58:03.600Z,52.00
2023-05-09T10:59:03.466Z,52.00
2023-05-09T11:00:03.747Z,53.00
2023-05-09T11:01:03.248Z,53.00
2023-05-09T11:02:03.618Z,54.00
2023-05-09T11:03:03.925Z,53.00
2023-05-09T11:04:03.314Z,53.00
2023-05-09T11:05:02.376Z,52.00
2023-05-09T11:06:02.224Z,52.00
2023-05-09T11:07:02.180Z,53.00
2023-05-09T11:08:02.360Z,53.00
2023-05-09T11:09:01.831Z,53.00
2023-05-09T11:10:02.833Z,55.00
2023-05-09T11:11:02.302Z,56.00
2023-05-09T11:12:02.393Z,56.00
2023-05-09T11:13:02.556Z,55.00
2023-05-09T11:14:02.321Z,54.00
2023-05-09T11:15:02.350Z,52.00
2023-05-09T11:16:02.361Z,52.00
2023-05-09T11:17:02.288Z,51.00
2023-05-09T11:18:02.289Z,51.00
2023-05-09T11:19:02.299Z,51.00
2023-05-09T11:20:02.347Z,49.00
2023-05-09T11:21:02.568Z,50.00
2023-05-09T11:22:02.708Z,51.00
2023-05-09T11:23:02.958Z,51.00
2023-05-09T11:24:02.967Z,50.00
2023-05-09T11:25:02.501Z,50.00
2023-05-09T11:26:02.195Z,49.00
2023-05-09T11:27:02.298Z,50.00
2023-05-09T11:28:02.375Z,49.00
2023-05-09T11:29:02.454Z,51.00
2023-05-09T11:30:02.018Z,51.00
2023-05-09T11:31:01.990Z,52.00
2023-05-09T11:32:02.304Z,51.00
2023-05-09T11:33:02.425Z,52.00
2023-05-09T11:34:02.209Z,52.00
2023-05-09T11:35:02.071Z,53.00
2023-05-09T11:36:02.303Z,53.00
2023-05-09T11:37:02.572Z,53.00
2023-05-09T11:38:02.682Z,52.00
2023-05-09T11:39:02.683Z,53.00
2023-05-09T11:40:02.662Z,53.00
2023-05-09T11:41:02.937Z,52.00
2023-05-09T11:42:03.310Z,51.00
2023-05-09T11:43:03.146Z,51.00
2023-05-09T11:44:02.812Z,51.00
2023-05-09T11:45:02.012Z,51.00
2023-05-09T11:46:02.652Z,50.00
2023-05-09T11:47:02.112Z,50.00
2023-05-09T11:48:02.273Z,50.00
2023-05-09T11:49:02.570Z,50.00
2023-05-09T11:50:02.608Z,49.00
2023-05-09T11:51:03.003Z,50.00
2023-05-09T11:52:03.194Z,49.00
2023-05-09T11:53:03.110Z,50.00
2023-05-09T11:54:02.968Z,51.00
2023-05-09T11:55:02.300Z,51.00
2023-05-09T11:56:02.583Z,51.00
2023-05-09T11:57:02.806Z,52.00
2023-05-09T11:58:02.939Z,51.00
2023-05-09T11:59:02.183Z,52.00
2023-05-09T12:00:02.436Z,52.00
2023-05-09T12:01:02.818Z,51.00
2023-05-09T12:02:02.435Z,52.00
2023-05-09T12:03:02.694Z,50.00
2023-05-09T12:04:03.139Z,50.00
2023-05-09T12:05:02.529Z,50.00
2023-05-09T12:06:02.658Z,51.00
2023-05-09T12:07:02.791Z,51.00
2023-05-09T12:08:03.060Z,52.00
2023-05-09T12:09:03.056Z,51.00
2023-05-09T12:10:03.015Z,50.00
2023-05-09T12:11:03.207Z,51.00
2023-05-09T12:12:03.570Z,51.00
2023-05-09T12:13:03.623Z,51.00
2023-05-09T12:14:03.177Z,52.00
2023-05-09T12:15:03.287Z,52.00
2023-05-09T12:16:03.414Z,51.00
2023-05-09T12:17:03.576Z,51.00
2023-05-09T12:18:03.713Z,51.00
2023-05-09T12:19:03.819Z,50.00
2023-05-09T12:20:02.815Z,51.00
2023-05-09T12:21:02.871Z,51.00
2023-05-09T12:22:03.048Z,50.00
2023-05-09T12:23:03.322Z,52.00
2023-05-09T12:24:02.977Z,52.00
2023-05-09T12:25:03.222Z,51.00
2023-05-09T12:26:03.205Z,52.00
2023-05-09T12:27:03.703Z,51.00
2023-05-09T12:28:03.290Z,52.00
2023-05-09T12:29:03.309Z,52.00
2023-05-09T12:30:02.608Z,52.00
2023-05-09T12:31:02.665Z,52.00
2023-05-09T12:32:02.639Z,51.00
2023-05-09T12:33:02.924Z,51.00
2023-05-09T12:34:02.944Z,52.00
2023-05-09T12:35:03.143Z,51.00
2023-05-09T12:36:03.106Z,52.00
2023-05-09T12:37:03.360Z,52.00
2023-05-09T12:38:03.612Z,52.00
2023-05-09T12:39:03.533Z,52.00
2023-05-09T12:40:02.733Z,53.00
2023-05-09T12:41:03.796Z,53.00
2023-05-09T12:42:03.090Z,52.00
2023-05-09T12:43:03.146Z,52.00
2023-05-09T12:44:03.174Z,51.00
2023-05-09T12:45:02.873Z,50.00
2023-05-09T12:46:03.105Z,50.00
2023-05-09T12:47:02.619Z,50.00
2023-05-09T12:48:02.751Z,50.00
2023-05-09T12:49:03.244Z,50.00
2023-05-09T12:50:03.352Z,49.00
2023-05-09T12:51:03.720Z,50.00
2023-05-09T12:52:05.023Z,51.00
2023-05-09T12:53:03.824Z,51.00